Time;durP1;ratioP1;P1;durP2;ratioP2;P2;SDS_P1;SDS_P2;PMS_P1;PMS_P2;Temp;Humidity;BMP_temperature;BMP_pressure;BME280_temperature;BME280_humidity;BME280_pressure;Samples;Min_cycle;Max_cycle;Signal;HPM_P1;HPM_P2
2022/04/02 00:01:47;;;;;;;6.32;2.90;;;;;;;6.42;49.81;101309.00;4817384;28;120131;-88
2022/04/02 00:04:31;;;;;;;5.53;3.08;;;;;;;6.12;49.77;101269.59;4988351;23;121478;-93
2022/04/02 00:07:04;;;;;;;5.82;3.00;;;;;;;6.47;49.30;101311.28;4852634;28;121203;-93
2022/04/02 00:09:30;;;;;;;4.65;2.95;;;;;;;6.22;49.13;101289.75;4848598;28;118485;-93
2022/04/02 00:12:00;;;;;;;6.78;3.40;;;;;;;6.06;49.25;101265.00;4837151;28;121748;-92
2022/04/02 00:14:26;;;;;;;5.35;3.17;;;;;;;5.98;49.24;101269.78;4860205;29;120768;-94
2022/04/02 00:16:54;;;;;;;6.15;3.20;;;;;;;5.95;49.23;101254.25;4874632;28;118430;-92
2022/04/02 00:19:20;;;;;;;7.35;3.47;;;;;;;5.93;49.40;101255.81;4868464;28;120940;-93
2022/04/02 00:21:47;;;;;;;5.85;3.30;;;;;;;6.47;49.83;101347.50;4863284;28;121840;-93
2022/04/02 00:24:13;;;;;;;7.18;3.40;;;;;;;6.32;49.32;101324.28;4838535;28;118929;-93
2022/04/02 00:26:40;;;;;;;7.85;3.30;;;;;;;5.91;49.21;101269.81;4848459;28;121132;-91
2022/04/02 00:29:10;;;;;;;6.93;3.30;;;;;;;5.85;49.90;101260.50;4880187;28;118395;-93
2022/04/02 00:31:35;;;;;;;6.55;3.72;;;;;;;6.20;49.89;101313.13;4863661;28;120563;-93
2022/04/02 00:34:03;;;;;;;9.10;3.70;;;;;;;5.79;49.67;101260.19;4879088;28;120070;-92
2022/04/02 00:36:34;;;;;;;10.13;4.63;;;;;;;5.72;49.85;101254.03;4864165;28;118481;-94
2022/04/02 00:39:00;;;;;;;7.40;3.90;;;;;;;6.08;49.97;101317.91;4864533;28;119098;-92
2022/04/02 00:41:26;;;;;;;8.20;3.95;;;;;;;5.78;49.86;101276.94;4840621;28;121748;-93
2022/04/02 00:43:55;;;;;;;5.35;3.47;;;;;;;6.27;50.24;101343.81;4864211;28;118381;-93
2022/04/02 00:46:21;;;;;;;5.10;3.35;;;;;;;6.02;50.13;101324.19;4845075;28;122285;-94
2022/04/02 00:48:49;;;;;;;6.00;3.35;;;;;;;5.68;49.83;101266.88;4867663;28;120135;-92
2022/04/02 00:51:18;;;;;;;6.78;3.53;;;;;;;5.64;49.66;101264.19;4863332;28;120454;-94
2022/04/02 00:53:48;;;;;;;10.25;3.58;;;;;;;5.60;49.99;101265.41;4832768;28;122523;-94
2022/04/02 00:56:15;;;;;;;6.63;3.83;;;;;;;5.57;50.21;101258.81;4832881;28;118398;-93
2022/04/02 00:58:41;;;;;;;5.70;3.47;;;;;;;5.65;50.20;101273.13;4843635;28;118389;-93
2022/04/02 01:01:12;;;;;;;7.95;3.92;;;;;;;5.59;50.42;101261.13;4852757;28;120249;-93
2022/04/02 01:03:38;;;;;;;5.93;3.35;;;;;;;5.62;50.27;101265.78;4860571;28;118431;-92
2022/04/02 01:06:08;;;;;;;5.82;3.58;;;;;;;5.62;50.84;101268.50;4837403;28;120571;-93
2022/04/02 01:08:39;;;;;;;5.95;3.60;;;;;;;5.65;50.34;101267.69;4882671;28;120599;-93
2022/04/02 01:11:09;;;;;;;6.80;3.40;;;;;;;5.65;50.12;101264.97;4824228;28;121147;-94
2022/04/02 01:13:36;;;;;;;6.68;3.30;;;;;;;5.95;50.66;101318.81;4853605;28;121762;-94
2022/04/02 01:16:06;;;;;;;5.95;3.30;;;;;;;5.85;50.92;101295.91;4848916;28;118458;-94
2022/04/02 01:18:58;;;;;;;7.53;4.00;;;;;;;6.23;50.94;101345.03;4850271;28;121199;-94
2022/04/02 01:21:29;;;;;;;6.70;3.72;;;;;;;5.68;50.86;101266.88;4828265;28;123036;-93
2022/04/02 01:24:10;;;;;;;7.05;3.28;;;;;;;5.64;50.79;101264.19;4860486;28;118421;-93
2022/04/02 01:26:41;;;;;;;6.53;3.53;;;;;;;5.69;50.86;101268.47;4864333;28;121850;-93
2022/04/02 01:29:18;;;;;;;7.13;3.83;;;;;;;5.64;50.73;101264.19;4878647;28;119701;-93
2022/04/02 01:31:51;;;;;;;8.35;3.65;;;;;;;5.60;50.15;101266.19;4873942;28;118667;-93
2022/04/02 01:34:21;;;;;;;8.95;3.97;;;;;;;5.50;50.25;101262.38;4858837;28;121859;-93
2022/04/02 01:36:48;;;;;;;8.23;3.65;;;;;;;5.61;50.43;101269.66;4855872;28;118480;-93
2022/04/02 01:39:34;;;;;;;6.28;3.97;;;;;;;5.87;50.34;101318.06;4860404;28;121673;-94
2022/04/02 01:42:06;;;;;;;7.25;3.72;;;;;;;5.52;50.50;101262.75;4860846;28;121654;-93
2022/04/02 01:44:41;;;;;;;7.10;4.20;;;;;;;5.51;50.64;101269.38;4828324;29;118467;-94
2022/04/02 01:51:35;;;;;;;7.88;3.40;;;;;;;5.34;50.44;101274.94;4875708;28;118380;-91
2022/04/02 01:54:04;;;;;;;6.68;3.80;;;;;;;5.38;50.41;101295.50;4870818;28;118444;-92
2022/04/02 01:56:30;;;;;;;6.80;3.40;;;;;;;5.87;50.70;101364.34;4848242;28;120754;-91
2022/04/02 01:59:00;;;;;;;6.07;3.60;;;;;;;5.36;51.10;101284.25;4839661;28;120253;-92
2022/04/02 02:01:28;;;;;;;6.90;3.90;;;;;;;5.42;50.71;101309.06;4845575;28;120418;-92
2022/04/02 02:03:54;;;;;;;7.07;3.90;;;;;;;5.34;50.36;101292.03;4864223;28;121288;-92
2022/04/02 02:06:22;;;;;;;6.97;3.92;;;;;;;5.65;50.52;101336.50;4852967;28;118378;-92
2022/04/02 02:08:49;;;;;;;5.95;3.70;;;;;;;5.39;50.19;101301.72;4870470;28;119409;-92
2022/04/02 02:12:01;;;;;;;6.47;3.80;;;;;;;5.39;50.90;101302.47;4882120;28;118438;-92
2022/04/02 02:14:39;;;;;;;8.95;4.25;;;;;;;5.36;50.55;101292.41;4859726;28;118371;-92
2022/04/02 02:17:15;;;;;;;;;;;;;;;5.93;50.54;101373.69;4866049;28;119439;-92
2022/04/02 02:19:42;;;;;;;8.35;4.20;;;;;;;5.83;51.08;101355.44;4883433;28;120404;-92
2022/04/02 02:22:08;;;;;;;9.85;4.32;;;;;;;5.70;51.08;101329.88;4833228;28;120649;-93
2022/04/02 02:24:34;;;;;;;8.25;4.72;;;;;;;5.46;51.05;101274.47;4839314;29;122063;-91
2022/04/02 02:27:01;;;;;;;5.60;4.43;;;;;;;5.51;51.60;101291.13;4877986;28;119152;-91
2022/04/02 02:29:34;;;;;;;7.03;4.65;;;;;;;5.55;51.33;101281.00;4854488;28;120943;-92
2022/04/02 02:32:12;;;;;;;5.82;3.70;;;;;;;5.47;51.41;101267.84;4842744;28;121853;-91
2022/04/02 02:37:23;;;;;;;8.57;3.85;;;;;;;5.58;51.40;101273.19;4862873;28;120867;-92
2022/04/02 02:40:11;;;;;;;6.30;3.80;;;;;;;5.84;51.25;101313.41;4865606;28;119869;-92
2022/04/02 02:42:37;;;;;;;5.32;3.28;;;;;;;5.55;51.68;101270.13;4856878;28;118464;-91
2022/04/02 02:45:32;;;;;;;9.07;3.88;;;;;;;5.53;51.60;101269.75;4849410;28;121776;-91
2022/04/02 02:48:04;;;;;;;8.30;3.83;;;;;;;5.71;51.44;101315.09;4858317;28;118423;-92
2022/04/02 02:50:42;;;;;;;7.82;3.42;;;;;;;5.43;51.36;101277.97;4852214;28;120616;-92
2022/04/02 02:53:11;;;;;;;5.55;3.75;;;;;;;5.38;51.28;101278.41;4844755;28;121845;-92
2022/04/02 02:55:41;;;;;;;9.07;3.35;;;;;;;5.38;51.09;101284.63;4856368;28;118453;-92
2022/04/02 02:58:10;;;;;;;5.38;3.60;;;;;;;5.34;50.87;101281.16;4876551;28;120594;-93
2022/04/02 03:00:40;;;;;;;6.60;3.90;;;;;;;5.46;51.27;101316.06;4852215;28;121609;-93
2022/04/02 03:03:23;;;;;;;8.90;3.92;;;;;;;5.19;51.37;101274.25;4865328;28;118329;-93
2022/04/02 03:05:55;;;;;;;6.50;3.63;;;;;;;5.20;51.17;101282.03;4868083;28;121525;-93
2022/04/02 03:08:22;;;;;;;8.57;4.47;;;;;;;5.30;51.32;101301.41;4872582;28;118403;-93
2022/04/02 03:10:55;;;;;;;7.07;3.80;;;;;;;5.15;51.16;101279.72;4881055;28;118546;-94
2022/04/02 03:13:26;;;;;;;5.65;3.60;;;;;;;5.53;51.34;101337.00;4875841;28;120250;-93
2022/04/02 03:16:02;;;;;;;7.25;3.53;;;;;;;5.52;51.35;101328.06;4881501;28;118270;-93
2022/04/02 03:18:30;;;;;;;7.20;3.50;;;;;;;5.22;50.99;101278.91;4848462;28;120713;-94
2022/04/02 03:20:58;;;;;;;8.60;3.70;;;;;;;5.83;51.30;101369.81;4845475;28;120410;-93
2022/04/02 03:23:29;;;;;;;8.27;3.75;;;;;;;5.23;50.77;101285.91;4878283;28;118310;-93
2022/04/02 03:25:55;;;;;;;6.60;3.20;;;;;;;5.23;50.63;101291.34;4884360;28;119642;-93
2022/04/02 03:28:24;;;;;;;6.97;3.72;;;;;;;5.22;50.50;101289.78;4854335;28;118492;-93
2022/04/02 03:30:49;;;;;;;6.18;3.15;;;;;;;5.36;50.61;101319.59;4845930;28;120901;-93
2022/04/02 03:33:16;;;;;;;5.75;3.58;;;;;;;5.14;51.13;101299.16;4853928;28;121765;-93
2022/04/02 03:35:46;;;;;;;6.13;3.55;;;;;;;5.06;50.59;101286.78;4859708;28;119087;-92
2022/04/02 03:38:13;;;;;;;5.90;3.83;;;;;;;5.40;51.10;101341.34;4837118;28;120669;-91
2022/04/02 03:40:42;;;;;;;7.78;3.75;;;;;;;5.37;50.86;101344.88;4864449;28;121823;-93
2022/04/02 05:11:50;;;;;;;7.33;3.90;;;;;;;5.20;52.87;101456.09;5494460;23;121278;31
2022/04/02 11:00:58;;;;;;;3.63;1.63;;;;;;;10.28;33.88;101606.53;5030414;23;120482;-90
2022/04/02 12:40:25;;;;;;;5.53;2.08;;;;;;;10.47;33.04;101579.50;4944735;23;119237;-90
2022/04/02 12:42:53;;;;;;;3.90;2.00;;;;;;;10.45;32.65;101557.97;4793474;28;119316;-90
2022/04/02 12:45:24;;;;;;;4.20;1.98;;;;;;;10.48;32.78;101553.59;4828709;28;122355;-89
2022/04/02 12:48:11;;;;;;;3.47;2.08;;;;;;;10.48;34.01;101556.34;4815910;28;120609;-89
2022/04/02 12:54:09;;;;;;;2.70;2.00;;;;;;;10.51;32.65;101591.16;4827225;28;119661;-89
2022/04/02 12:56:38;;;;;;;4.35;2.40;;;;;;;10.17;32.95;101553.88;4796344;29;123591;-89
2022/04/02 12:59:16;;;;;;;2.50;1.90;;;;;;;10.15;33.50;101557.03;4781455;29;120249;-89
2022/04/02 13:01:43;;;;;;;2.35;2.00;;;;;;;10.31;34.12;101575.53;4797895;28;120859;-89
2022/04/02 13:04:12;;;;;;;3.25;2.00;;;;;;;10.39;33.48;101578.88;4798395;28;123240;-89
2022/04/02 13:09:44;;;;;;;;;;;;;;;10.65;34.11;101596.31;4916780;23;120136;-89
2022/04/02 13:12:28;;;;;;;2.70;2.13;;;;;;;10.72;33.81;101605.13;4831996;28;119465;-89
2022/04/02 13:15:11;;;;;;;3.42;2.30;;;;;;;10.38;34.08;101553.41;4830686;28;122091;-90
2022/04/02 13:20:34;;;;;;;3.25;2.30;;;;;;;10.38;34.07;101564.38;4892161;23;119280;-90
2022/04/02 13:23:02;;;;;;;3.72;2.50;;;;;;;10.29;34.33;101566.94;4821595;28;121051;-89
2022/04/02 13:25:29;;;;;;;2.60;2.05;;;;;;;10.47;34.05;101598.69;4853190;28;118881;-89
2022/04/02 23:58:34;;;;;;;11.25;6.60;;;;;;;5.10;50.60;101630.19;4826092;26;119379;-87
